createdAt,value
2023-04-09T00:01:38.429Z,73.70
2023-04-09T00:04:05.157Z,74.16
2023-04-09T00:06:31.784Z,73.85
2023-04-09T00:08:58.211Z,75.13
2023-04-09T00:11:24.653Z,73.86
2023-04-09T00:13:51.318Z,73.83
2023-04-09T00:16:17.788Z,75.22
2023-04-09T00:18:44.320Z,75.28
2023-04-09T00:21:11.219Z,74.98
2023-04-09T00:23:37.800Z,75.97
2023-04-09T00:26:04.513Z,76.94
2023-04-09T00:28:30.928Z,75.41
2023-04-09T00:30:57.471Z,76.30
2023-04-09T00:33:23.969Z,75.35
2023-04-09T00:35:54.680Z,75.78
2023-04-09T00:38:22.220Z,77.38
2023-04-09T00:40:50.620Z,77.68
2023-04-09T00:43:17.973Z,77.36
2023-04-09T00:45:45.476Z,77.30
2023-04-09T00:48:16.402Z,77.65
2023-04-09T00:50:43.186Z,79.17
2023-04-09T00:53:11.002Z,77.98
2023-04-09T00:55:40.334Z,76.90
2023-04-09T00:58:07.073Z,76.88
2023-04-09T01:00:33.546Z,77.16
2023-04-09T01:03:00.879Z,77.20
2023-04-09T01:05:34.311Z,77.05
2023-04-09T01:08:08.241Z,76.54
2023-04-09T01:10:42.832Z,77.14
2023-04-09T01:13:24.057Z,76.53
2023-04-09T01:16:00.728Z,76.56
2023-04-09T01:18:41.148Z,76.30
2023-04-09T01:21:27.504Z,75.63
2023-04-09T01:24:36.884Z,75.99
2023-04-09T01:27:08.332Z,77.17
2023-04-09T01:29:39.177Z,75.81
2023-04-09T01:32:07.845Z,75.79
2023-04-09T01:34:35.404Z,77.17
2023-04-09T01:37:03.731Z,78.87
2023-04-09T01:39:31.370Z,78.84
2023-04-09T01:41:57.994Z,79.08
2023-04-09T01:44:29.017Z,79.06
2023-04-09T01:46:57.460Z,79.03
2023-04-09T01:49:28.430Z,79.81
2023-04-09T01:51:56.482Z,79.13
2023-04-09T01:54:22.974Z,78.13
2023-04-09T01:56:49.486Z,77.93
2023-04-09T01:59:16.200Z,79.20
2023-04-09T02:01:47.154Z,78.98
2023-04-09T02:04:22.156Z,79.62
2023-04-09T02:06:52.668Z,78.86
2023-04-09T02:09:21.215Z,77.42
2023-04-09T02:11:49.887Z,76.56
2023-04-09T02:14:18.672Z,77.54
2023-04-09T02:16:46.488Z,78.79
2023-04-09T02:19:12.888Z,79.33
2023-04-09T02:21:39.413Z,79.77
2023-04-09T02:24:06.001Z,80.15
2023-04-09T02:26:32.484Z,81.16
2023-04-09T02:28:58.976Z,82.55
2023-04-09T02:31:26.403Z,83.66
2023-04-09T02:33:54.214Z,84.04
2023-04-09T02:36:23.419Z,83.55
2023-04-09T02:38:49.989Z,82.15
2023-04-09T02:41:16.658Z,82.43
2023-04-09T02:43:43.065Z,82.91
2023-04-09T02:46:09.552Z,82.90
2023-04-09T02:48:35.955Z,82.75
2023-04-09T02:51:05.528Z,82.94
2023-04-09T02:53:32.007Z,84.13
2023-04-09T02:56:01.247Z,84.20
2023-04-09T02:58:30.542Z,83.71
2023-04-09T03:00:59.627Z,83.52
2023-04-09T03:03:26.374Z,83.45
2023-04-09T03:05:53.922Z,82.57
2023-04-09T03:08:20.327Z,83.03
2023-04-09T03:10:46.767Z,84.38
2023-04-09T03:13:13.258Z,86.12
2023-04-09T03:15:39.833Z,85.85
2023-04-09T03:18:06.353Z,84.78
2023-04-09T03:20:32.877Z,84.22
2023-04-09T03:23:02.114Z,83.04
2023-04-09T03:25:30.610Z,82.18
2023-04-09T03:27:57.074Z,81.93
2023-04-09T03:30:23.573Z,81.72
2023-04-09T03:32:52.469Z,81.76
2023-04-09T03:35:18.958Z,83.09
2023-04-09T03:37:48.346Z,82.37
2023-04-09T03:40:14.919Z,80.15
2023-04-09T03:42:43.200Z,79.62
2023-04-09T03:45:09.868Z,80.32
2023-04-09T03:47:36.459Z,80.21
2023-04-09T03:50:03.357Z,79.74
2023-04-09T03:52:37.060Z,79.72
2023-04-09T03:55:04.648Z,79.69
2023-04-09T03:57:32.798Z,79.83
2023-04-09T03:59:59.240Z,80.18
2023-04-09T04:02:27.160Z,80.49
2023-04-09T04:04:53.895Z,79.61
2023-04-09T04:07:20.384Z,78.48
2023-04-09T04:09:46.900Z,78.18
2023-04-09T04:12:13.369Z,78.86
2023-04-09T04:14:39.803Z,78.99
2023-04-09T04:17:06.302Z,80.45
2023-04-09T04:19:34.186Z,82.06
2023-04-09T04:22:00.692Z,82.31
2023-04-09T04:24:27.134Z,83.35
2023-04-09T04:26:53.551Z,84.04
2023-04-09T04:29:20.073Z,84.59
2023-04-09T04:31:46.623Z,84.63
2023-04-09T04:34:13.265Z,84.79
2023-04-09T04:36:39.787Z,85.06
2023-04-09T04:39:06.219Z,85.99
2023-04-09T04:41:35.208Z,87.22
2023-04-09T04:44:01.704Z,88.74
2023-04-09T04:46:28.185Z,89.81
2023-04-09T04:48:54.845Z,89.58
2023-04-09T04:51:21.460Z,88.90
2023-04-09T04:53:47.926Z,88.71
2023-04-09T04:56:15.635Z,87.30
2023-04-09T04:58:42.841Z,86.66
2023-04-09T05:01:09.448Z,87.86
2023-04-09T05:03:36.072Z,87.67
2023-04-09T05:06:04.072Z,88.70
2023-04-09T05:08:30.950Z,89.29
2023-04-09T05:10:57.511Z,89.38
2023-04-09T05:13:24.274Z,89.73
2023-04-09T05:15:50.882Z,89.81
2023-04-09T05:18:17.661Z,90.33
2023-04-09T05:20:44.257Z,90.19
2023-04-09T05:23:10.811Z,89.78
2023-04-09T05:25:37.316Z,88.58
2023-04-09T05:28:06.658Z,88.00
2023-04-09T05:30:36.510Z,89.02
2023-04-09T05:33:04.543Z,88.67
2023-04-09T05:35:31.109Z,88.64
2023-04-09T05:37:57.626Z,86.05
2023-04-09T05:40:24.229Z,86.24
2023-04-09T05:42:50.728Z,85.17
2023-04-09T05:45:17.287Z,83.75
2023-04-09T05:47:43.828Z,85.19
2023-04-09T05:50:11.515Z,86.79
2023-04-09T05:52:37.957Z,89.84
2023-04-09T05:55:09.771Z,90.36
2023-04-09T05:57:36.565Z,90.93
2023-04-09T06:00:06.553Z,90.74
2023-04-09T06:02:36.057Z,90.94
2023-04-09T06:05:06.095Z,91.98
2023-04-09T06:07:34.493Z,90.77
2023-04-09T06:10:04.718Z,90.47
2023-04-09T06:12:31.155Z,93.39
2023-04-09T06:14:57.608Z,93.12
2023-04-09T06:17:24.060Z,91.32
2023-04-09T06:19:50.580Z,89.91
2023-04-09T06:22:17.077Z,88.80
2023-04-09T06:24:43.574Z,88.44
2023-04-09T06:27:10.040Z,87.75
2023-04-09T06:29:36.456Z,87.21
2023-04-09T06:32:05.857Z,87.02
2023-04-09T06:34:34.377Z,86.13
2023-04-09T06:37:00.794Z,85.95
2023-04-09T06:39:27.927Z,83.08
2023-04-09T06:41:54.460Z,82.73
2023-04-09T06:44:21.795Z,82.42
2023-04-09T06:46:48.279Z,81.56
2023-04-09T06:49:15.108Z,80.34
2023-04-09T06:51:41.917Z,78.02
2023-04-09T06:54:08.802Z,79.48
2023-04-09T06:56:35.631Z,78.81
2023-04-09T06:59:03.771Z,78.74
2023-04-09T07:01:30.829Z,78.23
2023-04-09T07:03:57.799Z,79.27
2023-04-09T07:06:24.589Z,79.03
2023-04-09T07:08:51.375Z,77.87
2023-04-09T07:11:17.958Z,77.36
2023-04-09T07:13:44.430Z,76.74
2023-04-09T07:16:11.108Z,75.97
2023-04-09T07:18:37.676Z,76.35
2023-04-09T07:21:07.012Z,74.93
2023-04-09T07:23:37.182Z,72.58
2023-04-09T07:26:06.803Z,73.48
2023-04-09T07:28:36.787Z,72.61
2023-04-09T07:31:06.260Z,70.06
2023-04-09T07:33:36.599Z,68.70
2023-04-09T07:36:06.685Z,70.37
2023-04-09T07:38:37.077Z,68.92
2023-04-09T07:41:06.582Z,69.29
2023-04-09T07:43:34.657Z,66.41
2023-04-09T07:46:01.443Z,66.42
2023-04-09T07:48:29.454Z,66.75
2023-04-09T07:50:56.929Z,66.26
2023-04-09T07:53:23.441Z,66.71
2023-04-09T07:55:53.015Z,66.21
2023-04-09T07:58:19.501Z,69.55
2023-04-09T08:00:46.245Z,67.28
2023-04-09T08:03:14.083Z,66.25
2023-04-09T08:05:41.251Z,63.61
2023-04-09T08:08:08.006Z,63.32
2023-04-09T08:10:35.688Z,63.57
2023-04-09T08:13:05.039Z,61.43
2023-04-09T08:15:37.206Z,61.31
2023-04-09T08:18:07.233Z,59.60
2023-04-09T08:20:37.064Z,60.57
2023-04-09T08:23:04.957Z,60.21
2023-04-09T08:25:34.034Z,58.50
2023-04-09T08:28:00.488Z,56.31
2023-04-09T08:30:27.253Z,56.91
2023-04-09T08:32:53.800Z,55.24
2023-04-09T08:35:20.493Z,55.99
2023-04-09T08:37:47.212Z,56.41
2023-04-09T08:40:13.787Z,54.51
2023-04-09T08:42:46.008Z,53.53
2023-04-09T08:45:13.522Z,61.29
2023-04-09T08:47:43.018Z,53.25
2023-04-09T08:50:10.026Z,53.19
2023-04-09T08:52:37.687Z,50.77
2023-04-09T08:55:05.218Z,51.43
2023-04-09T08:57:38.368Z,49.63
2023-04-09T09:00:06.013Z,52.16
2023-04-09T09:02:36.479Z,51.42
2023-04-09T09:05:04.867Z,47.62
2023-04-09T09:07:34.809Z,48.48
2023-04-09T09:10:04.984Z,48.73
2023-04-09T09:12:39.685Z,47.06
2023-04-09T09:15:26.301Z,47.16
2023-04-09T09:17:58.397Z,46.94
2023-04-09T09:20:27.323Z,45.11
2023-04-09T09:22:56.953Z,47.74
2023-04-09T09:25:26.272Z,45.17
2023-04-09T09:27:54.692Z,45.15
2023-04-09T09:30:27.594Z,44.64
2023-04-09T09:33:04.605Z,44.44
2023-04-09T09:35:31.294Z,42.49
2023-04-09T09:38:04.461Z,43.52
2023-04-09T09:40:30.990Z,40.61
2023-04-09T09:42:58.009Z,41.16
2023-04-09T09:45:26.114Z,42.51
2023-04-09T09:50:25.260Z,40.91
2023-04-09T09:52:58.926Z,39.54
2023-04-09T09:55:30.931Z,39.33
2023-04-09T09:58:00.666Z,39.02
2023-04-09T10:00:28.853Z,39.48
2023-04-09T10:03:12.169Z,39.67
2023-04-09T10:05:40.974Z,38.03
2023-04-09T10:08:07.982Z,36.66
2023-04-09T10:10:36.519Z,36.14
2023-04-09T10:13:05.364Z,36.24
2023-04-09T10:15:35.385Z,36.61
2023-04-09T10:18:02.031Z,34.89
2023-04-09T10:20:35.708Z,36.16
2023-04-09T10:23:09.623Z,35.45
2023-04-09T10:25:36.176Z,34.25
2023-04-09T10:28:05.716Z,33.27
2023-04-09T10:30:36.580Z,33.20
2023-04-09T10:33:17.087Z,29.67
2023-04-09T10:35:46.917Z,29.76
2023-04-09T10:38:15.149Z,30.34
2023-04-09T10:40:47.381Z,30.68
2023-04-09T10:43:14.511Z,32.67
2023-04-09T10:45:42.078Z,30.26
2023-04-09T10:48:13.705Z,30.17
2023-04-09T10:50:44.237Z,28.90
2023-04-09T10:53:26.437Z,29.39
2023-04-09T10:55:54.110Z,31.71
2023-04-09T10:58:20.641Z,32.59
2023-04-09T11:00:48.613Z,33.41
2023-04-09T11:03:25.295Z,34.21
2023-04-09T11:05:52.703Z,31.09
2023-04-09T11:08:19.586Z,31.83
2023-04-09T11:10:49.041Z,30.92
2023-04-09T11:13:18.627Z,31.87
2023-04-09T11:15:46.107Z,31.48
2023-04-09T11:18:20.253Z,32.58
2023-04-09T11:20:47.073Z,30.31
2023-04-09T11:23:14.079Z,29.85
2023-04-09T11:25:40.699Z,30.96
2023-04-09T11:28:08.427Z,29.78
2023-04-09T11:30:38.629Z,30.04
2023-04-09T11:33:10.772Z,26.72
2023-04-09T11:35:37.521Z,27.73
2023-04-09T11:38:11.523Z,28.65
2023-04-09T11:40:47.695Z,29.36
2023-04-09T11:43:16.613Z,28.69
2023-04-09T11:45:44.324Z,28.50
2023-04-09T11:48:11.558Z,26.99
2023-04-09T11:50:38.137Z,26.53
2023-04-09T11:53:21.157Z,25.87
2023-04-09T11:55:52.466Z,27.42
2023-04-09T11:58:22.608Z,27.91
2023-04-09T12:00:49.169Z,27.80
2023-04-09T12:03:16.715Z,27.74
2023-04-09T12:05:50.948Z,28.59
2023-04-09T12:08:23.870Z,27.97
2023-04-09T12:10:53.375Z,28.83
2023-04-09T12:13:21.219Z,28.63
2023-04-09T12:15:49.746Z,28.40
2023-04-09T12:18:16.483Z,28.64
2023-04-09T12:20:44.524Z,28.18
2023-04-09T12:23:12.437Z,29.27
2023-04-09T12:25:41.108Z,30.97
2023-04-09T12:28:09.297Z,29.50
2023-04-09T12:30:38.809Z,27.84
2023-04-09T12:33:07.616Z,26.60
2023-04-09T12:35:36.814Z,29.35
2023-04-09T12:38:07.096Z,28.99
2023-04-09T12:40:36.946Z,27.99
2023-04-09T12:43:03.531Z,29.54
2023-04-09T12:45:30.826Z,25.74
2023-04-09T12:47:58.011Z,28.41
2023-04-09T12:50:24.652Z,29.06
2023-04-09T12:52:51.181Z,27.08
2023-04-09T12:55:17.672Z,27.39
2023-04-09T12:57:47.145Z,25.32
2023-04-09T13:00:14.338Z,26.31
2023-04-09T13:02:41.525Z,27.68
2023-04-09T13:05:11.366Z,27.52
2023-04-09T13:07:42.920Z,26.30
2023-04-09T13:10:10.274Z,25.40
2023-04-09T13:12:36.731Z,24.93
2023-04-09T13:15:03.467Z,24.98
2023-04-09T13:17:29.990Z,24.44
2023-04-09T13:19:56.571Z,23.81
2023-04-09T13:22:23.100Z,23.81
2023-04-09T13:24:49.568Z,24.23
2023-04-09T13:27:16.640Z,23.72
2023-04-09T13:29:43.212Z,23.79
2023-04-09T13:32:12.376Z,24.47
2023-04-09T13:34:42.029Z,24.35
2023-04-09T13:37:11.416Z,23.52
2023-04-09T13:39:41.219Z,25.15
2023-04-09T13:42:14.190Z,25.89
2023-04-09T13:44:42.425Z,26.12
2023-04-09T13:47:13.497Z,25.93
2023-04-09T13:49:40.726Z,25.22
2023-04-09T13:52:11.062Z,23.71
2023-04-09T13:54:40.580Z,24.03
2023-04-09T13:57:09.092Z,24.40
2023-04-09T13:59:36.111Z,23.90
2023-04-09T14:02:02.695Z,24.42
2023-04-09T14:04:29.362Z,25.34
2023-04-09T14:06:57.207Z,27.39
2023-04-09T14:09:23.670Z,27.05
2023-04-09T14:11:50.974Z,27.88
2023-04-09T14:14:18.089Z,26.77
2023-04-09T14:16:44.550Z,26.70
2023-04-09T14:19:11.110Z,25.81
2023-04-09T14:21:38.969Z,24.54
2023-04-09T14:24:05.966Z,24.58
2023-04-09T14:26:32.444Z,26.01
2023-04-09T14:28:59.053Z,25.31
2023-04-09T14:31:26.043Z,24.30
2023-04-09T14:33:52.559Z,24.71
2023-04-09T14:36:19.118Z,25.14
2023-04-09T14:38:46.083Z,23.69
2023-04-09T14:41:12.694Z,24.28
2023-04-09T14:43:42.261Z,25.16
2023-04-09T14:46:12.166Z,24.93
2023-04-09T14:48:41.566Z,24.82
2023-04-09T14:51:11.317Z,24.66
2023-04-09T14:53:43.076Z,25.29
2023-04-09T14:56:09.570Z,25.79
2023-04-09T14:58:37.998Z,25.07
2023-04-09T15:01:04.893Z,24.55
2023-04-09T15:03:31.924Z,24.57
2023-04-09T15:05:59.565Z,24.01
2023-04-09T15:08:28.431Z,25.03
2023-04-09T15:10:55.058Z,24.06
2023-04-09T15:13:21.799Z,24.62
2023-04-09T15:15:48.506Z,25.78
2023-04-09T15:18:15.620Z,26.39
2023-04-09T15:20:43.445Z,26.35
2023-04-09T15:23:10.726Z,25.55
2023-04-09T15:25:38.374Z,25.97
2023-04-09T15:28:05.927Z,26.31
2023-04-09T15:30:32.445Z,25.38
2023-04-09T15:32:58.995Z,25.95
2023-04-09T15:35:29.082Z,26.12
2023-04-09T15:37:56.874Z,27.93
2023-04-09T15:40:23.362Z,27.98
2023-04-09T15:42:49.817Z,28.32
2023-04-09T15:45:17.108Z,28.70
2023-04-09T15:47:44.602Z,27.92
2023-04-09T15:50:11.276Z,27.49
2023-04-09T15:52:40.747Z,27.70
2023-04-09T15:55:10.332Z,28.92
2023-04-09T15:57:40.129Z,29.59
2023-04-09T16:00:10.613Z,30.44
2023-04-09T16:02:39.485Z,30.58
2023-04-09T16:05:09.155Z,30.96
2023-04-09T16:07:35.649Z,31.56
2023-04-09T16:10:02.560Z,31.97
2023-04-09T16:12:29.112Z,31.52
2023-04-09T16:14:55.593Z,31.61
2023-04-09T16:17:22.090Z,31.81
2023-04-09T16:19:48.598Z,31.52
2023-04-09T16:22:15.049Z,31.46
2023-04-09T16:24:41.568Z,31.21
2023-04-09T16:27:13.023Z,30.84
2023-04-09T16:29:39.873Z,31.12
2023-04-09T16:32:08.888Z,32.21
2023-04-09T16:34:35.859Z,31.57
2023-04-09T16:37:02.471Z,32.10
2023-04-09T16:39:29.556Z,31.76
2023-04-09T16:41:58.274Z,32.10
2023-04-09T16:44:25.413Z,33.17
2023-04-09T16:46:52.003Z,33.67
2023-04-09T16:49:18.566Z,33.61
2023-04-09T16:51:46.098Z,33.43
2023-04-09T16:54:13.321Z,33.83
2023-04-09T16:56:42.540Z,34.28
2023-04-09T16:59:12.151Z,33.90
2023-04-09T17:01:41.764Z,33.38
2023-04-09T17:04:10.949Z,32.63
2023-04-09T17:07:08.790Z,33.73
2023-04-09T17:09:35.920Z,34.54
2023-04-09T17:12:02.565Z,34.51
2023-04-09T17:14:33.899Z,34.96
2023-04-09T17:17:00.784Z,35.10
2023-04-09T17:19:27.347Z,35.13
2023-04-09T17:21:53.915Z,35.99
2023-04-09T17:24:20.375Z,36.40
2023-04-09T17:26:46.836Z,36.33
2023-04-09T17:29:13.730Z,36.90
2023-04-09T17:31:40.294Z,37.27
2023-04-09T17:34:09.024Z,38.29
2023-04-09T17:36:35.545Z,38.96
2023-04-09T17:39:02.477Z,39.29
2023-04-09T17:41:29.021Z,39.73
2023-04-09T17:43:55.524Z,40.22
2023-04-09T17:46:22.195Z,40.67
2023-04-09T17:48:48.781Z,41.09
2023-04-09T17:51:20.024Z,41.79
2023-04-09T17:53:47.388Z,42.19
2023-04-09T17:56:18.062Z,42.32
2023-04-09T17:58:45.063Z,43.04
2023-04-09T18:01:13.387Z,43.30
2023-04-09T18:03:45.515Z,43.72
2023-04-09T18:06:12.541Z,43.98
2023-04-09T18:08:43.335Z,44.86
2023-04-09T18:11:15.453Z,45.12
2023-04-09T18:13:42.012Z,45.21
2023-04-09T18:16:12.510Z,45.71
2023-04-09T18:18:42.070Z,45.97
2023-04-09T18:21:11.678Z,46.28
2023-04-09T18:23:41.279Z,46.75
2023-04-09T18:26:11.494Z,46.86
2023-04-09T18:28:40.310Z,47.64
2023-04-09T18:31:09.491Z,48.18
2023-04-09T18:33:36.465Z,48.52
2023-04-09T18:36:03.382Z,48.10
2023-04-09T18:38:30.516Z,48.27
2023-04-09T18:40:57.752Z,48.59
2023-04-09T18:43:26.056Z,49.16
2023-04-09T18:45:52.731Z,49.25
2023-04-09T18:48:19.421Z,50.21
2023-04-09T18:50:46.122Z,50.04
2023-04-09T18:53:12.720Z,49.83
2023-04-09T18:55:42.292Z,50.04
2023-04-09T18:58:14.918Z,50.41
2023-04-09T19:00:42.294Z,51.24
2023-04-09T19:03:11.141Z,51.21
2023-04-09T19:05:40.034Z,51.45
2023-04-09T19:08:10.646Z,51.82
2023-04-09T19:10:37.366Z,52.24
2023-04-09T19:13:03.858Z,51.99
2023-04-09T19:15:30.437Z,51.74
2023-04-09T19:17:57.393Z,51.63
2023-04-09T19:20:23.924Z,51.90
2023-04-09T19:26:50.821Z,52.36
2023-04-09T19:29:49.722Z,52.46
2023-04-09T19:32:18.834Z,52.36
2023-04-09T19:35:51.667Z,52.63
2023-04-09T19:38:18.684Z,53.03
2023-04-09T19:40:45.893Z,53.29
2023-04-09T19:43:12.618Z,53.42
2023-04-09T19:45:45.336Z,53.64
2023-04-09T19:48:12.703Z,53.63
2023-04-09T19:50:43.437Z,53.76
2023-04-09T19:53:12.860Z,53.76
2023-04-09T19:55:40.934Z,53.46
2023-04-09T19:58:10.173Z,53.84
2023-04-09T20:00:36.691Z,54.20
2023-04-09T20:03:05.781Z,54.48
2023-04-09T20:05:32.713Z,54.95
2023-04-09T20:07:59.398Z,55.22
2023-04-09T20:10:25.871Z,55.56
2023-04-09T20:12:52.409Z,55.52
2023-04-09T20:15:21.961Z,55.58
2023-04-09T20:17:49.658Z,55.71
2023-04-09T20:20:20.177Z,55.99
2023-04-09T20:22:55.585Z,56.22
2023-04-09T20:25:23.183Z,56.00
2023-04-09T20:27:52.353Z,55.88
2023-04-09T20:30:18.893Z,56.50
2023-04-09T20:32:45.395Z,56.96
2023-04-09T20:35:13.567Z,57.45
2023-04-09T20:37:43.189Z,57.27
2023-04-09T20:40:12.695Z,57.53
2023-04-09T20:42:41.280Z,57.15
2023-04-09T20:45:11.597Z,57.80
2023-04-09T20:47:39.426Z,57.81
2023-04-09T20:50:06.554Z,58.05
2023-04-09T20:52:33.046Z,58.31
2023-04-09T20:54:59.638Z,59.22
2023-04-09T20:57:26.101Z,59.67
2023-04-09T20:59:55.197Z,60.47
2023-04-09T21:02:22.340Z,60.62
2023-04-09T21:04:48.951Z,61.31
2023-04-09T21:07:15.698Z,61.66
2023-04-09T21:09:42.157Z,61.35
2023-04-09T21:12:13.004Z,61.52
2023-04-09T21:16:54.704Z,61.28
2023-04-09T21:18:08.887Z,61.21
2023-04-09T21:20:35.521Z,60.96
2023-04-09T21:23:01.978Z,61.32
2023-04-09T21:25:29.527Z,61.72
2023-04-09T21:27:56.295Z,61.86
2023-04-09T21:30:23.017Z,62.33
2023-04-09T21:32:49.460Z,62.50
2023-04-09T21:35:16.345Z,62.36
2023-04-09T21:37:46.444Z,62.10
2023-04-09T21:40:17.867Z,62.75
2023-04-09T21:42:44.406Z,62.17
2023-04-09T21:45:13.177Z,63.25
2023-04-09T21:47:40.033Z,63.71
2023-04-09T21:50:07.331Z,64.33
2023-04-09T21:52:34.410Z,64.08
2023-04-09T21:55:00.924Z,64.61
2023-04-09T21:57:27.443Z,65.59
2023-04-09T21:59:53.862Z,64.46
2023-04-09T22:02:20.568Z,64.63
2023-04-09T22:04:47.119Z,65.09
2023-04-09T22:07:13.697Z,65.81
2023-04-09T22:09:40.385Z,66.30
2023-04-09T22:12:07.254Z,66.28
2023-04-09T22:14:33.809Z,66.93
2023-04-09T22:17:01.761Z,67.21
2023-04-09T22:19:30.087Z,66.85
2023-04-09T22:21:57.246Z,66.69
2023-04-09T22:24:26.882Z,66.69
2023-04-09T22:26:53.624Z,66.40
2023-04-09T22:29:20.185Z,66.24
2023-04-09T22:31:46.698Z,66.64
2023-04-09T22:34:20.821Z,67.61
2023-04-09T22:36:48.279Z,68.17
2023-04-09T22:39:15.493Z,67.58
2023-04-09T22:41:41.957Z,67.89
2023-04-09T22:44:09.653Z,68.16
2023-04-09T22:46:36.601Z,68.16
2023-04-09T22:49:05.627Z,68.18
2023-04-09T22:51:34.759Z,67.93
2023-04-09T22:54:02.187Z,67.76
2023-04-09T22:56:30.123Z,67.97
2023-04-09T22:58:56.549Z,68.75
2023-04-09T23:01:23.253Z,70.44
2023-04-09T23:03:50.742Z,71.09
2023-04-09T23:06:17.324Z,72.71
2023-04-09T23:08:44.380Z,72.51
2023-04-09T23:11:11.321Z,72.42
2023-04-09T23:13:38.540Z,72.81
2023-04-09T23:16:08.926Z,72.76
2023-04-09T23:18:36.353Z,71.99
2023-04-09T23:21:12.505Z,70.18
2023-04-09T23:23:39.158Z,72.13
2023-04-09T23:26:06.172Z,71.60
2023-04-09T23:28:32.926Z,71.31
2023-04-09T23:30:59.640Z,71.66
2023-04-09T23:33:26.236Z,72.22
2023-04-09T23:35:52.854Z,72.41
2023-04-09T23:38:22.411Z,71.32
2023-04-09T23:40:51.938Z,71.77
2023-04-09T23:43:21.655Z,72.41
2023-04-09T23:45:50.407Z,70.71
2023-04-09T23:48:16.914Z,70.01
2023-04-09T23:50:43.373Z,70.19
2023-04-09T23:53:09.890Z,70.68
2023-04-09T23:55:41.395Z,72.38
2023-04-09T23:58:08.272Z,72.67
